Colombres, Argentina
Current Conditions -  °F | °C
As of 2:00 PM on Saturday 22 Nov 2014 (Local Time) from SANT Reporting Station
Scattered Clouds Scattered Clouds  
Wind Chill: 82°   Ceiling: Unl
Heat Index: 82°   Visibility: 6mi
Dew Point: 59°   Wind: 5mph
Humidity: 45%   Direction: 90°E
Pressure: 30"   Gusts: NA
Location:  27.03°S, 65.17°W
Report Text: SANT 221700Z 09004KT 9999 FEW030 SCT10028/15 Q1016
Loading
Personal Weather Stations






























Interactive Weather Map New forecast layout! Learn more

10-Day Weather Forecast

Advertisements
Track Severe Weather on mobile